Weather observations for the past three days for
Sarasota / Bradenton, Sarasota-Bradenton International Airport
Metric (Imperial)
Date Time (edt) Wind (kph) Vis. (km) Weather Sky Cond. Temperature (ºC) Relative Humidity Wind Chill (°C) Heat Index (°C) Pressure Precipitation (cm)
Air Dwpt 6 hour altimeter (cm) sea level (mb) 1 hr 3 hr 6 hr
Max. Min.
08 16:53 W 17 16.09 Fair CLR 30 22.2 63% 33 75.95 1012.3
08 15:53 W 17 16.09 Fair CLR 30 22.8 65% 34 76 1013.0
08 14:53 W 20 16.09 Fair CLR 30.6 23.3 65% 35 76.05 1013.9
08 13:53 W 22 16.09 Fair CLR 30 23.9 30.6 25.6 70% 35 76.12 1014.9
08 12:53 W 19 16.09 Fair CLR 30 23.3 67% 34 76.17 1015.4
08 11:53 W 17 16.09 A Few Clouds FEW029 29.4 23.3 70% 34 76.23 1016.1
08 10:53 W 13 16.09 Fair CLR 28.9 23.3 72% 33 76.25 1016.4
08 09:53 Vrbl 9 16.09 A Few Clouds FEW024 27.2 22.8 77% 30 76.25 1016.5
08 08:53 NW 9 16.09 A Few Clouds FEW025 26.7 22.8 79% 29 76.23 1016.2
08 07:53 W 9 16.09 Fair CLR 25.6 23.9 25.6 23.3 90% 27 76.17 1015.4
08 06:53 NW 6 16.09 Fair CLR 23.9 22.2 90% 23 76.1 1014.6
08 05:53 NW 6 16.09 Fair CLR 23.9 21.7 88% 24 76.07 1014.1
08 04:53 Calm 16.09 Fair CLR 23.9 21.7 88% 24 76.05 1013.8
08 03:53 NW 6 16.09 Fair CLR 23.9 21.1 84% 24 76.05 1013.8
08 02:53 W 13 16.09 Fair CLR 25 21.1 79% 26 76.07 1014.0
08 01:53 W 11 16.09 Fair CLR 25 22.2 26.7 25 85% 26 76.1 1014.5
08 00:53 W 11 16.09 Fair CLR 25 22.2 85% 26 76.12 1014.8
07 23:53 W 9 16.09 Fair CLR 25.6 22.8 85% 27 76.15 1015.1
07 22:53 W 9 16.09 Fair CLR 25.6 22.8 85% 27 76.15 1015.0
07 21:53 W 9 16.09 Fair CLR 25.6 22.8 85% 27 76.12 1014.9
07 20:53 W 11 16.09 Fair CLR 25.6 22.2 82% 27 76.12 1014.7
07 19:53 SW 11 16.09 Fair CLR 26.7 21.7 28.9 26.7 74% 29 76.1 1014.5
07 18:53 W 13 16.09 Fair CLR 27.8 21.1 67% 30 76.1 1014.5
07 17:53 SW 13 16.09 Fair CLR 28.3 22.2 70% 31 76.1 1014.5
07 16:53 SW 13 16.09 Fair CLR 27.8 22.2 72% 30 76.12 1014.6
07 15:53 W 19 16.09 Fair CLR 28.3 22.2 70% 31 76.15 1015.0
07 14:53 SW 17 16.09 Fair CLR 28.3 22.2 70% 31 76.2 1015.7
07 13:53 SW 17 G 31 16.09 Fair CLR 28.3 22.2 28.9 22.8 70% 31 76.25 1016.5
07 12:53 SW 19 16.09 Fair CLR 27.8 22.2 72% 30 76.28 1016.8
07 11:53 SW 20 16.09 Fair CLR 27.8 22.2 72% 30 76.3 1017.1
07 10:53 S 19 16.09 Fair CLR 27.8 21.7 69% 30 76.3 1017.0
07 09:53 SW 19 16.09 Fair CLR 26.7 21.1 71% 28 76.28 1016.8
07 08:53 S 13 16.09 Fair CLR 25.6 22.2 82% 27 76.25 1016.3
07 07:53 S 9 16.09 Fair CLR 22.8 21.1 23.9 21.7 90% 76.2 1015.9
07 06:53 SE 6 16.09 Fair CLR 21.7 20 90% 76.17 1015.6
07 05:53 SE 6 16.09 Fair CLR 22.2 20.6 91% 76.15 1015.2
07 04:53 S 6 16.09 Fair CLR 22.8 21.1 90% 76.12 1014.8
07 03:53 E 6 16.09 Fair CLR 23.3 21.7 91% 76.1 1014.4
07 02:53 E 7 16.09 Fair CLR 23.9 22.2 90% 23 76.12 1014.8
07 01:53 E 6 16.09 Fair CLR 23.9 22.2 26.1 23.9 90% 23 76.2 1015.7
07 00:53 NE 6 16.09 Fair CLR 24.4 22.2 88% 25 76.25 1016.3
06 23:53 Calm 16.09 Fair CLR 24.4 22.2 88% 25 76.23 1016.1
06 22:53 N 6 16.09 Fair CLR 24.4 22.2 88% 25 76.2 1015.9
06 21:53 W 9 16.09 Fair CLR 25 22.8 88% 26 76.2 1015.8
06 20:53 W 11 16.09 Fair CLR 25 22.2 85% 26 76.2 1015.6
06 19:53 W 15 16.09 Fair CLR 26.1 22.2 28.9 26.1 79% 28 76.2 1015.8
06 18:53 W 15 16.09 Fair CLR 26.7 22.2 76% 29 76.2 1015.7
06 17:53 SW 17 16.09 Fair CLR 27.8 21.7 69% 30 76.17 1015.6
06 16:53 SW 19 16.09 Fair CLR 27.8 22.8 74% 31 76.2 1015.6
06 15:53 SW 19 16.09 Fair CLR 28.3 22.8 72% 32 76.2 1015.8
06 14:53 SW 22 G 35 16.09 Fair CLR 28.3 22.8 72% 32 76.23 1016.2
06 13:53 SW 20 16.09 Fair CLR 28.9 22.8 30.6 21.7 70% 32 76.28 1016.9
06 12:53 SW 22 16.09 Fair CLR 28.9 22.8 70% 32 76.3 1017.2
06 11:53 S 22 16.09 A Few Clouds FEW029 FEW034 29.4 22.2 65% 33 76.3 1017.3
06 10:53 SE 17 16.09 Fair CLR 28.9 21.1 63% 31 76.3 1017.0
06 09:53 SE 17 16.09 Fair CLR 27.8 21.1 67% 30 76.28 1017.0
06 08:53 SE 17 16.09 Fair CLR 25 21.1 79% 26 76.25 1016.6
06 07:53 SE 11 16.09 Fair CLR 21.7 20 23.3 21.1 90% 76.25 1016.3
06 06:53 E 7 16.09 Fair CLR 21.1 19.4 90% 76.2 1015.7
06 05:53 E 9 16.09 Fair CLR 21.1 19.4 90% 76.17 1015.4
06 04:53 E 9 16.09 Fair CLR 21.7 19.4 87% 76.15 1015.2
06 03:53 SE 11 16.09 Fair CLR 22.2 19.4 84% 76.15 1015.2
06 02:53 E 11 16.09 Fair CLR 22.8 18.9 79% 76.2 1015.6
06 01:53 E 11 16.09 Fair CLR 23.3 18.9 25.6 23.3 76% 76.2 1015.8
06 00:53 E 11 16.09 Fair CLR 24.4 18.3 69% 25 76.25 1016.5
05 23:53 E 11 16.09 Overcast OVC036 25 19.4 71% 26 76.23 1016.2
05 22:53 E 6 16.09 Fair CLR 24.4 20 77% 25 76.23 1016.1
05 21:53 N 9 16.09 A Few Clouds FEW060 24.4 20.6 79% 25 76.2 1015.7
05 20:53 NW 7 16.09 Fair CLR 25 20.6 77% 26 76.15 1015.0
05 19:53 NW 15 16.09 Fair CLR 25.6 20 29.4 25.6 71% 27 76.1 1014.6
05 18:53 NW 17 16.09 Fair CLR 27.2 20.6 67% 29 76.1 1014.4
05 17:53 W 20 16.09 Fair CLR 27.2 20.6 67% 29 76.1 1014.4
Date Time (edt) Wind (kph) Vis. (km) Weather Sky Cond. Air Dwpt Max. Min. Relative Humidity Wind Chill (°C) Heat Index (°C) altimeter (cm) sea level (mb) 1 hr 3 hr 6 hr
6 hour
Temperature (ºC) Pressure Precipitation (cm)